createdAt,value
2019-01-24T00:00:39.022Z,1002.34
2019-01-24T00:01:39.124Z,1002.39
2019-01-24T00:03:40.365Z,1002.36
2019-01-24T00:04:37.701Z,1002.32
2019-01-24T00:05:37.710Z,1002.33
2019-01-24T00:06:37.757Z,1002.40
2019-01-24T00:07:38.763Z,1002.39
2019-01-24T00:08:38.344Z,1002.34
2019-01-24T00:09:38.344Z,1002.44
2019-01-24T00:10:39.022Z,1002.45
2019-01-24T00:11:38.564Z,1002.45
2019-01-24T00:12:39.072Z,1002.47
2019-01-24T00:13:37.587Z,1002.46
2019-01-24T00:14:38.351Z,1002.45
2019-01-24T00:15:38.684Z,1002.52
2019-01-24T00:16:38.633Z,1002.49
2019-01-24T00:17:38.344Z,1002.47
2019-01-24T00:18:37.615Z,1002.55
2019-01-24T00:20:38.633Z,1002.52
2019-01-24T00:21:39.409Z,1002.55
2019-01-24T00:22:37.527Z,1002.52
2019-01-24T00:23:38.009Z,1002.52
2019-01-24T00:24:37.684Z,1002.56
2019-01-24T00:25:37.820Z,1002.59
2019-01-24T00:26:37.477Z,1002.61
2019-01-24T00:27:37.495Z,1002.62
2019-01-24T00:28:38.865Z,1002.64
2019-01-24T00:29:37.553Z,1002.59
2019-01-24T00:30:37.698Z,1002.76
2019-01-24T00:32:38.409Z,1002.63
2019-01-24T00:33:38.411Z,1002.63
2019-01-24T00:34:37.378Z,1002.66
2019-01-24T00:35:38.885Z,1002.64
2019-01-24T00:36:38.873Z,1002.66
2019-01-24T00:37:37.948Z,1002.68
2019-01-24T00:38:38.652Z,1002.69
2019-01-24T00:39:38.259Z,1002.67
2019-01-24T00:40:37.352Z,1002.73
2019-01-24T00:42:38.295Z,1002.71
2019-01-24T00:43:40.207Z,1002.78
2019-01-24T00:44:40.477Z,1002.79
2019-01-24T00:45:39.355Z,1002.84
2019-01-24T00:46:37.656Z,1002.88
2019-01-24T00:47:37.235Z,1002.89
2019-01-24T00:48:37.255Z,1002.87
2019-01-24T00:49:37.951Z,1002.86
2019-01-24T00:50:37.995Z,1002.85
2019-01-24T00:51:38.888Z,1002.89
2019-01-24T00:52:37.798Z,1002.89
2019-01-24T00:53:38.165Z,1002.84
2019-01-24T00:54:37.446Z,1002.89
2019-01-24T00:55:37.229Z,1002.85
2019-01-24T00:56:37.260Z,1002.87
2019-01-24T00:57:37.881Z,1002.88
2019-01-24T00:58:37.231Z,1002.89
2019-01-24T00:59:37.169Z,1002.88
2019-01-24T01:00:37.432Z,1002.81
2019-01-24T01:01:38.232Z,1002.85
2019-01-24T01:02:37.172Z,1002.93
2019-01-24T01:03:37.850Z,1002.92
2019-01-24T01:04:38.098Z,1002.97
2019-01-24T01:05:38.289Z,1003.01
2019-01-24T01:06:37.749Z,1003.02
2019-01-24T01:07:37.931Z,1003.04
2019-01-24T01:08:38.180Z,1003.08
2019-01-24T01:09:37.862Z,1003.07
2019-01-24T01:10:38.895Z,1003.03
2019-01-24T01:11:37.561Z,1003.12
2019-01-24T01:12:37.990Z,1003.11
2019-01-24T01:13:38.342Z,1003.07
2019-01-24T01:14:37.094Z,1003.13
2019-01-24T01:15:38.184Z,1003.19
2019-01-24T01:16:37.909Z,1003.18
2019-01-24T01:17:36.942Z,1003.19
2019-01-24T01:18:37.217Z,1003.17
2019-01-24T01:19:37.858Z,1003.14
2019-01-24T01:20:36.922Z,1003.15
2019-01-24T01:21:36.942Z,1003.15
2019-01-24T01:22:37.134Z,1003.17
2019-01-24T01:23:37.214Z,1003.21
2019-01-24T01:24:36.854Z,1003.20
2019-01-24T01:25:37.860Z,1003.19
2019-01-24T01:26:37.056Z,1003.23
2019-01-24T01:27:37.542Z,1003.17
2019-01-24T01:28:37.388Z,1003.22
2019-01-24T01:29:37.391Z,1003.25
2019-01-24T01:30:36.794Z,1003.24
2019-01-24T01:31:37.879Z,1003.29
2019-01-24T01:32:37.449Z,1003.28
2019-01-24T01:33:36.838Z,1003.26
2019-01-24T01:34:37.365Z,1003.31
2019-01-24T01:35:37.606Z,1003.27
2019-01-24T01:36:36.838Z,1003.28
2019-01-24T01:37:37.453Z,1003.30
2019-01-24T01:38:37.777Z,1003.32
2019-01-24T01:39:36.818Z,1003.30
2019-01-24T01:40:37.860Z,1003.33
2019-01-24T01:41:36.752Z,1003.37
2019-01-24T01:42:36.851Z,1003.41
2019-01-24T01:43:37.108Z,1003.38
2019-01-24T01:44:36.773Z,1003.41
2019-01-24T01:45:36.653Z,1003.43
2019-01-24T01:46:37.123Z,1003.42
2019-01-24T01:47:38.405Z,1003.44
2019-01-24T01:48:38.427Z,1003.42
2019-01-24T01:49:36.699Z,1003.43
2019-01-24T01:50:37.899Z,1003.44
2019-01-24T01:51:37.867Z,1003.42
2019-01-24T01:52:36.964Z,1003.47
2019-01-24T01:53:36.787Z,1003.44
2019-01-24T01:55:38.543Z,1003.47
2019-01-24T01:56:38.448Z,1003.50
2019-01-24T01:57:36.649Z,1003.51
2019-01-24T01:58:37.480Z,1003.52
2019-01-24T01:59:37.554Z,1003.52
2019-01-24T02:00:38.470Z,1003.54
2019-01-24T02:01:36.873Z,1003.54
2019-01-24T02:02:36.699Z,1003.50
2019-01-24T02:03:36.869Z,1003.51
2019-01-24T02:04:42.726Z,1003.60
2019-01-24T02:05:39.199Z,1003.58
2019-01-24T02:06:36.592Z,1003.51
2019-01-24T02:07:37.970Z,1003.54
2019-01-24T02:08:37.361Z,1003.56
2019-01-24T02:09:36.796Z,1003.56
2019-01-24T02:10:36.386Z,1003.59
2019-01-24T02:11:37.368Z,1003.54
2019-01-24T02:12:37.068Z,1003.55
2019-01-24T02:13:36.469Z,1003.60
2019-01-24T02:14:36.462Z,1003.63
2019-01-24T02:15:36.356Z,1003.60
2019-01-24T02:16:36.342Z,1003.61
2019-01-24T02:17:37.609Z,1003.57
2019-01-24T02:18:36.866Z,1003.60
2019-01-24T02:19:36.618Z,1003.58
2019-01-24T02:20:37.046Z,1003.57
2019-01-24T02:21:36.263Z,1003.59
2019-01-24T02:22:37.561Z,1003.59
2019-01-24T02:23:36.283Z,1003.66
2019-01-24T02:24:37.006Z,1003.58
2019-01-24T02:25:36.274Z,1003.61
2019-01-24T02:26:36.252Z,1003.65
2019-01-24T02:27:36.756Z,1003.63
2019-01-24T02:28:36.444Z,1003.64
2019-01-24T02:29:36.212Z,1003.66
2019-01-24T02:30:37.027Z,1003.67
2019-01-24T02:31:36.166Z,1003.69
2019-01-24T02:32:36.553Z,1003.75
2019-01-24T02:33:36.980Z,1003.70
2019-01-24T02:34:36.150Z,1003.66
2019-01-24T02:35:37.512Z,1003.67
2019-01-24T02:36:36.274Z,1003.68
2019-01-24T02:37:36.177Z,1003.68
2019-01-24T02:38:36.402Z,1003.64
2019-01-24T02:39:37.352Z,1003.71
2019-01-24T02:40:36.322Z,1003.71
2019-01-24T02:41:36.096Z,1003.71
2019-01-24T02:42:36.785Z,1003.74
2019-01-24T02:43:37.226Z,1003.74
2019-01-24T02:44:36.086Z,1003.74
2019-01-24T02:45:36.425Z,1003.75
2019-01-24T02:46:36.873Z,1003.73
2019-01-24T02:47:36.586Z,1003.79
2019-01-24T02:48:36.037Z,1003.82
2019-01-24T02:49:36.271Z,1003.81
2019-01-24T02:50:36.036Z,1003.85
2019-01-24T02:51:36.889Z,1003.84
2019-01-24T02:52:36.865Z,1003.88
2019-01-24T02:53:37.949Z,1003.84
2019-01-24T02:54:37.295Z,1003.80
2019-01-24T02:55:36.866Z,1003.87
2019-01-24T02:56:35.912Z,1003.88
2019-01-24T02:57:36.214Z,1003.89
2019-01-24T02:58:36.001Z,1003.89
2019-01-24T02:59:36.018Z,1003.91
2019-01-24T03:00:35.944Z,1003.89
2019-01-24T03:01:36.499Z,1003.90
2019-01-24T03:02:36.867Z,1003.89
2019-01-24T03:03:36.147Z,1003.91
2019-01-24T03:04:36.009Z,1003.92
2019-01-24T03:05:36.480Z,1003.92
2019-01-24T03:06:35.965Z,1003.90
2019-01-24T03:07:35.793Z,1003.91
2019-01-24T03:08:35.826Z,1003.86
2019-01-24T03:09:35.837Z,1003.88
2019-01-24T03:11:36.920Z,1003.83
2019-01-24T03:12:37.370Z,1003.85
2019-01-24T03:13:35.761Z,1003.83
2019-01-24T03:14:36.075Z,1003.85
2019-01-24T03:15:36.067Z,1003.78
2019-01-24T03:16:35.893Z,1003.79
2019-01-24T03:17:35.952Z,1003.79
2019-01-24T03:18:35.692Z,1003.78
2019-01-24T03:19:35.682Z,1003.78
2019-01-24T03:20:35.662Z,1003.83
2019-01-24T03:21:35.836Z,1003.79
2019-01-24T03:22:36.060Z,1003.79
2019-01-24T03:23:36.429Z,1003.80
2019-01-24T03:24:36.041Z,1003.78
2019-01-24T03:25:35.647Z,1003.83
2019-01-24T03:26:36.237Z,1003.76
2019-01-24T03:28:36.811Z,1003.82
2019-01-24T03:29:35.731Z,1003.76
2019-01-24T03:30:35.776Z,1003.79
2019-01-24T03:31:35.546Z,1003.71
2019-01-24T03:32:36.586Z,1003.73
2019-01-24T03:33:36.185Z,1003.74
2019-01-24T03:34:35.787Z,1003.78
2019-01-24T03:35:35.606Z,1003.80
2019-01-24T03:36:36.396Z,1003.76
2019-01-24T03:37:35.583Z,1003.79
2019-01-24T03:38:35.727Z,1003.79
2019-01-24T03:39:36.477Z,1003.81
2019-01-24T03:40:35.769Z,1003.83
2019-01-24T03:41:35.457Z,1003.85
2019-01-24T03:42:37.373Z,1003.82
2019-01-24T03:43:35.799Z,1003.82
2019-01-24T03:44:35.491Z,1003.84
2019-01-24T03:45:36.890Z,1003.88
2019-01-24T03:46:40.740Z,1003.88
2019-01-24T03:47:35.704Z,1003.87
2019-01-24T03:48:35.380Z,1003.85
2019-01-24T03:49:35.358Z,1003.89
2019-01-24T03:50:35.612Z,1003.90
2019-01-24T03:51:35.570Z,1003.89
2019-01-24T03:52:35.368Z,1003.89
2019-01-24T03:53:35.322Z,1003.88
2019-01-24T03:54:35.958Z,1003.90
2019-01-24T03:55:35.610Z,1003.92
2019-01-24T03:56:35.394Z,1003.89
2019-01-24T03:57:35.430Z,1003.88
2019-01-24T03:58:35.984Z,1003.96
2019-01-24T03:59:35.251Z,1003.93
2019-01-24T04:00:36.007Z,1003.91
2019-01-24T04:01:35.466Z,1003.92
2019-01-24T04:02:35.252Z,1003.95
2019-01-24T04:03:35.598Z,1003.94
2019-01-24T04:04:36.155Z,1003.98
2019-01-24T04:05:35.213Z,1003.99
2019-01-24T04:06:35.902Z,1003.95
2019-01-24T04:07:36.152Z,1003.86
2019-01-24T04:08:36.216Z,1003.90
2019-01-24T04:09:35.272Z,1003.92
2019-01-24T04:10:35.229Z,1003.92
2019-01-24T04:11:35.252Z,1003.96
2019-01-24T04:12:35.560Z,1003.98
2019-01-24T04:13:35.143Z,1003.93
2019-01-24T04:14:35.164Z,1003.95
2019-01-24T04:15:35.138Z,1004.00
2019-01-24T04:16:35.880Z,1004.02
2019-01-24T04:17:36.884Z,1004.01
2019-01-24T04:18:35.090Z,1004.07
2019-01-24T04:19:35.663Z,1004.06
2019-01-24T04:20:35.501Z,1004.08
2019-01-24T04:21:35.042Z,1004.15
2019-01-24T04:22:36.170Z,1004.08
2019-01-24T04:23:35.069Z,1004.09
2019-01-24T04:24:35.024Z,1004.09
2019-01-24T04:25:35.402Z,1004.10
2019-01-24T04:26:35.555Z,1004.11
2019-01-24T04:27:35.067Z,1004.16
2019-01-24T04:28:38.714Z,1004.25
2019-01-24T04:29:37.105Z,1004.16
2019-01-24T04:30:35.066Z,1004.16
2019-01-24T04:31:34.922Z,1004.20
2019-01-24T04:32:35.892Z,1004.25
2019-01-24T04:33:35.056Z,1004.21
2019-01-24T04:34:34.907Z,1004.28
2019-01-24T04:35:35.102Z,1004.31
2019-01-24T04:36:34.908Z,1004.27
2019-01-24T04:37:34.906Z,1004.35
2019-01-24T04:38:35.390Z,1004.31
2019-01-24T04:39:35.148Z,1004.38
2019-01-24T04:40:35.701Z,1004.41
2019-01-24T04:41:34.899Z,1004.33
2019-01-24T04:42:34.934Z,1004.39
2019-01-24T04:43:35.884Z,1004.37
2019-01-24T04:44:35.006Z,1004.39
2019-01-24T04:45:34.778Z,1004.37
2019-01-24T04:46:35.198Z,1004.40
2019-01-24T04:47:35.531Z,1004.37
2019-01-24T04:48:35.016Z,1004.42
2019-01-24T04:49:34.869Z,1004.49
2019-01-24T04:50:35.216Z,1004.51
2019-01-24T04:51:35.289Z,1004.47
2019-01-24T04:52:34.861Z,1004.47
2019-01-24T04:53:34.700Z,1004.46
2019-01-24T04:54:34.703Z,1004.40
2019-01-24T04:55:34.962Z,1004.45
2019-01-24T04:56:34.740Z,1004.47
2019-01-24T04:57:34.741Z,1004.41
2019-01-24T04:58:34.632Z,1004.44
2019-01-24T04:59:35.437Z,1004.50
2019-01-24T05:00:34.915Z,1004.49
2019-01-24T05:01:35.441Z,1004.48
2019-01-24T05:02:34.799Z,1004.54
2019-01-24T05:03:34.648Z,1004.53
2019-01-24T05:04:35.885Z,1004.57
2019-01-24T05:05:34.699Z,1004.60
2019-01-24T05:06:34.551Z,1004.63
2019-01-24T05:07:41.964Z,1004.63
2019-01-24T05:08:35.511Z,1004.67
2019-01-24T05:09:34.611Z,1004.62
2019-01-24T05:10:34.512Z,1004.61
2019-01-24T05:11:34.499Z,1004.62
2019-01-24T05:12:34.487Z,1004.66
2019-01-24T05:13:34.483Z,1004.65
2019-01-24T05:14:34.472Z,1004.63
2019-01-24T05:15:34.497Z,1004.63
2019-01-24T05:16:34.533Z,1004.62
2019-01-24T05:17:34.465Z,1004.68
2019-01-24T05:18:34.456Z,1004.73
2019-01-24T05:19:34.416Z,1004.70
2019-01-24T05:20:34.885Z,1004.71
2019-01-24T05:21:34.396Z,1004.76
2019-01-24T05:22:34.386Z,1004.77
2019-01-24T05:23:34.376Z,1004.72
2019-01-24T05:24:34.363Z,1004.72
2019-01-24T05:25:34.382Z,1004.71
2019-01-24T05:26:34.469Z,1004.77
2019-01-24T05:27:34.350Z,1004.80
2019-01-24T05:28:34.403Z,1004.72
2019-01-24T05:29:34.963Z,1004.73
2019-01-24T05:30:34.480Z,1004.75
2019-01-24T05:31:34.317Z,1004.75
2019-01-24T05:32:34.283Z,1004.78
2019-01-24T05:33:34.348Z,1004.80
2019-01-24T05:34:34.263Z,1004.80
2019-01-24T05:35:35.083Z,1004.81
2019-01-24T05:36:34.257Z,1004.77
2019-01-24T05:37:34.274Z,1004.91
2019-01-24T05:38:34.544Z,1004.86
2019-01-24T05:39:34.206Z,1004.88
2019-01-24T05:40:34.198Z,1004.88
2019-01-24T05:41:34.213Z,1004.87
2019-01-24T05:42:34.240Z,1004.89
2019-01-24T05:43:34.173Z,1004.85
2019-01-24T05:44:34.155Z,1004.91
2019-01-24T05:45:34.154Z,1004.91
2019-01-24T05:46:34.137Z,1004.91
2019-01-24T05:47:34.160Z,1004.89
2019-01-24T05:48:34.113Z,1004.90
2019-01-24T05:49:34.152Z,1004.86
2019-01-24T05:50:34.097Z,1004.88
2019-01-24T05:51:34.092Z,1004.91
2019-01-24T05:52:34.102Z,1004.89
2019-01-24T05:53:34.109Z,1004.84
2019-01-24T05:54:34.116Z,1004.86
2019-01-24T05:55:35.225Z,1004.82
2019-01-24T05:56:34.195Z,1004.82
2019-01-24T05:57:36.906Z,1004.84
2019-01-24T05:58:34.145Z,1004.84
2019-01-24T05:59:34.039Z,1004.86
2019-01-24T06:00:34.164Z,1004.79
2019-01-24T06:01:35.476Z,1004.84
2019-01-24T06:02:34.511Z,1004.78
2019-01-24T06:03:34.193Z,1004.79
2019-01-24T06:04:38.446Z,1004.78
2019-01-24T06:05:41.721Z,1004.84
2019-01-24T06:06:35.921Z,1004.78
2019-01-24T06:07:34.140Z,1004.87
2019-01-24T06:08:34.050Z,1004.84
2019-01-24T06:09:34.217Z,1004.86
2019-01-24T06:10:34.545Z,1004.81
2019-01-24T06:11:34.463Z,1004.83
2019-01-24T06:12:34.596Z,1004.82
2019-01-24T06:13:48.503Z,1004.83
2019-01-24T06:14:34.442Z,1004.81
2019-01-24T06:15:34.046Z,1004.84
2019-01-24T06:16:34.559Z,1004.85
2019-01-24T06:17:33.897Z,1004.83
2019-01-24T06:18:34.678Z,1004.84
2019-01-24T06:19:33.880Z,1004.91
2019-01-24T06:20:34.053Z,1004.92
2019-01-24T06:21:33.832Z,1004.92
2019-01-24T06:22:33.866Z,1004.93
2019-01-24T06:23:33.791Z,1004.96
2019-01-24T06:24:33.788Z,1004.95
2019-01-24T06:25:33.735Z,1004.86
2019-01-24T06:26:33.749Z,1004.86
2019-01-24T06:27:33.717Z,1004.90
2019-01-24T06:28:33.708Z,1004.95
2019-01-24T06:29:33.747Z,1004.96
2019-01-24T06:30:33.688Z,1004.95
2019-01-24T06:31:33.674Z,1004.87
2019-01-24T06:32:33.669Z,1004.96
2019-01-24T06:33:33.656Z,1004.96
2019-01-24T06:34:33.702Z,1004.98
2019-01-24T06:35:33.634Z,1004.99
2019-01-24T06:36:33.618Z,1005.03
2019-01-24T06:37:33.610Z,1005.07
2019-01-24T06:38:33.601Z,1005.05
2019-01-24T06:39:33.600Z,1005.09
2019-01-24T06:40:33.607Z,1005.06
2019-01-24T06:41:33.614Z,1005.10
2019-01-24T06:42:33.563Z,1005.11
2019-01-24T06:43:33.553Z,1005.12
2019-01-24T06:44:33.535Z,1005.10
2019-01-24T06:45:33.554Z,1005.16
2019-01-24T06:46:33.514Z,1005.15
2019-01-24T06:47:33.540Z,1005.18
2019-01-24T06:48:33.501Z,1005.19
2019-01-24T06:49:33.489Z,1005.16
2019-01-24T06:50:33.499Z,1005.19
2019-01-24T06:51:33.464Z,1005.26
2019-01-24T06:52:33.491Z,1005.30
2019-01-24T06:53:33.510Z,1005.21
2019-01-24T06:54:33.435Z,1005.25
2019-01-24T06:55:33.456Z,1005.30
2019-01-24T06:56:33.411Z,1005.27
2019-01-24T06:57:33.400Z,1005.28
2019-01-24T06:58:33.405Z,1005.29
2019-01-24T06:59:33.387Z,1005.36
2019-01-24T07:00:33.411Z,1005.32
2019-01-24T07:01:33.367Z,1005.38
2019-01-24T07:02:33.355Z,1005.35
2019-01-24T07:03:33.339Z,1005.41
2019-01-24T07:04:33.334Z,1005.37
2019-01-24T07:05:33.350Z,1005.42
2019-01-24T07:06:33.307Z,1005.48
2019-01-24T07:07:33.308Z,1005.43
2019-01-24T07:08:33.304Z,1005.48
2019-01-24T07:09:33.278Z,1005.53
2019-01-24T07:10:33.302Z,1005.51
2019-01-24T07:11:33.261Z,1005.52
2019-01-24T07:12:33.259Z,1005.55
2019-01-24T07:13:33.245Z,1005.56
2019-01-24T07:14:33.223Z,1005.59
2019-01-24T07:15:33.213Z,1005.58
2019-01-24T07:16:33.277Z,1005.61
2019-01-24T07:17:33.192Z,1005.66
2019-01-24T07:18:33.243Z,1005.68
2019-01-24T07:19:33.174Z,1005.70
2019-01-24T07:20:33.210Z,1005.72
2019-01-24T07:21:33.173Z,1005.70
2019-01-24T07:22:33.147Z,1005.82
2019-01-24T07:23:33.129Z,1005.74
2019-01-24T07:24:33.125Z,1005.79
2019-01-24T07:25:33.111Z,1005.84
2019-01-24T07:26:33.142Z,1005.83
2019-01-24T07:27:33.120Z,1005.89
2019-01-24T07:28:33.093Z,1005.88
2019-01-24T07:29:33.083Z,1005.86
2019-01-24T07:30:33.066Z,1005.87
2019-01-24T07:31:33.055Z,1005.90
2019-01-24T07:32:33.063Z,1005.93
2019-01-24T07:33:33.032Z,1005.95
2019-01-24T07:34:33.022Z,1005.95
2019-01-24T07:35:33.011Z,1005.98
2019-01-24T07:36:32.997Z,1005.94
2019-01-24T07:37:33.018Z,1005.99
2019-01-24T07:38:32.983Z,1005.98
2019-01-24T07:39:32.993Z,1006.04
2019-01-24T07:40:32.953Z,1006.02
2019-01-24T07:41:32.985Z,1006.08
2019-01-24T07:42:32.981Z,1006.10
2019-01-24T07:43:32.928Z,1006.14
2019-01-24T07:44:32.964Z,1006.12
2019-01-24T07:45:32.913Z,1006.12
2019-01-24T07:46:32.907Z,1006.16
2019-01-24T07:47:32.887Z,1006.13
2019-01-24T07:48:32.900Z,1006.20
2019-01-24T07:49:32.885Z,1006.14
2019-01-24T07:50:32.859Z,1006.21
2019-01-24T07:51:32.843Z,1006.14
2019-01-24T07:52:32.838Z,1006.23
2019-01-24T07:53:32.847Z,1006.25
2019-01-24T07:54:32.825Z,1006.27
2019-01-24T07:55:32.807Z,1006.21
2019-01-24T07:56:32.801Z,1006.30
2019-01-24T07:57:32.792Z,1006.30
2019-01-24T07:58:32.790Z,1006.32
2019-01-24T07:59:32.759Z,1006.29
2019-01-24T08:00:32.749Z,1006.37
2019-01-24T08:01:32.740Z,1006.33
2019-01-24T08:02:32.728Z,1006.40
2019-01-24T08:03:32.737Z,1006.42
2019-01-24T08:04:32.770Z,1006.41
2019-01-24T08:05:32.710Z,1006.40
2019-01-24T08:06:32.692Z,1006.39
2019-01-24T08:07:32.683Z,1006.40
2019-01-24T08:08:32.702Z,1006.48
2019-01-24T08:09:32.657Z,1006.45
2019-01-24T08:10:32.650Z,1006.48
2019-01-24T08:11:32.639Z,1006.54
2019-01-24T08:12:32.628Z,1006.50
2019-01-24T08:13:32.637Z,1006.47
2019-01-24T08:14:32.604Z,1006.51
2019-01-24T08:15:32.603Z,1006.54
2019-01-24T08:16:32.587Z,1006.58
2019-01-24T08:17:32.593Z,1006.56
2019-01-24T08:18:40.257Z,1006.56
2019-01-24T08:19:32.605Z,1006.54
2019-01-24T08:20:32.633Z,1006.55
2019-01-24T08:21:32.544Z,1006.57
2019-01-24T08:22:32.571Z,1006.50
2019-01-24T08:23:32.533Z,1006.56
2019-01-24T08:24:32.558Z,1006.60
2019-01-24T08:25:32.520Z,1006.63
2019-01-24T08:26:32.494Z,1006.61
2019-01-24T08:27:32.477Z,1006.62
2019-01-24T08:28:32.499Z,1006.63
2019-01-24T08:29:32.503Z,1006.68
2019-01-24T08:30:32.449Z,1006.61
2019-01-24T08:31:32.443Z,1006.66
2019-01-24T08:32:32.444Z,1006.69
2019-01-24T08:33:32.477Z,1006.67
2019-01-24T08:34:32.406Z,1006.66
2019-01-24T08:35:32.406Z,1006.68
2019-01-24T08:36:32.386Z,1006.64
2019-01-24T08:37:32.429Z,1006.74
2019-01-24T08:38:32.407Z,1006.71
2019-01-24T08:39:32.372Z,1006.73
2019-01-24T08:40:32.343Z,1006.75
2019-01-24T08:41:32.351Z,1006.72
2019-01-24T08:42:32.320Z,1006.72
2019-01-24T08:43:32.320Z,1006.76
2019-01-24T08:44:32.317Z,1006.76
2019-01-24T08:45:32.283Z,1006.77
2019-01-24T08:46:32.277Z,1006.79
2019-01-24T08:47:32.266Z,1006.78
2019-01-24T08:48:39.943Z,1006.76
2019-01-24T08:49:32.349Z,1006.74
2019-01-24T08:50:32.343Z,1006.74
2019-01-24T08:51:32.274Z,1006.78
2019-01-24T08:52:32.219Z,1006.75
2019-01-24T08:53:40.845Z,1006.81
2019-01-24T08:54:32.219Z,1006.74
2019-01-24T08:55:32.289Z,1006.82
2019-01-24T08:56:32.188Z,1006.78
2019-01-24T08:57:32.200Z,1006.82
2019-01-24T08:58:32.153Z,1006.78
2019-01-24T08:59:39.818Z,1006.78
2019-01-24T09:00:32.209Z,1006.76
2019-01-24T09:01:32.215Z,1006.78
2019-01-24T09:02:32.132Z,1006.75
2019-01-24T09:03:32.103Z,1006.77
2019-01-24T09:04:32.114Z,1006.77
2019-01-24T09:05:32.098Z,1006.77
2019-01-24T09:06:32.081Z,1006.82
2019-01-24T09:07:39.694Z,1006.74
2019-01-24T09:08:32.109Z,1006.81
2019-01-24T09:10:41.937Z,1006.75
2019-01-24T09:11:49.434Z,1006.79
2019-01-24T09:12:41.810Z,1006.74
2019-01-24T09:13:41.843Z,1006.77
2019-01-24T09:14:41.771Z,1006.72
2019-01-24T09:15:41.778Z,1006.82
2019-01-24T09:16:41.734Z,1006.79
2019-01-24T09:17:41.713Z,1006.74
2019-01-24T09:18:41.742Z,1006.72
2019-01-24T09:19:49.337Z,1006.70
2019-01-24T09:20:41.726Z,1006.72
2019-01-24T09:21:41.758Z,1006.75
2019-01-24T09:22:41.680Z,1006.77
2019-01-24T09:23:41.652Z,1006.75
2019-01-24T09:24:49.285Z,1006.75
2019-01-24T09:25:41.673Z,1006.73
2019-01-24T09:26:50.329Z,1006.70
2019-01-24T09:27:41.653Z,1006.68
2019-01-24T09:28:41.715Z,1006.71
2019-01-24T09:29:41.619Z,1006.73
2019-01-24T09:30:41.576Z,1006.72
2019-01-24T09:31:50.267Z,1006.71
2019-01-24T09:32:41.576Z,1006.73
2019-01-24T09:33:41.644Z,1006.66
2019-01-24T09:35:51.452Z,1006.71
2019-01-24T09:36:51.361Z,1006.74
2019-01-24T09:37:51.387Z,1006.75
2019-01-24T09:38:51.342Z,1006.79
2019-01-24T09:39:51.305Z,1006.78
2019-01-24T09:40:51.324Z,1006.74
2019-01-24T09:41:51.267Z,1006.78
2019-01-24T09:42:51.264Z,1006.73
2019-01-24T09:43:58.833Z,1006.74
2019-01-24T09:44:51.510Z,1006.79
2019-01-24T09:45:51.304Z,1006.73
2019-01-24T09:46:52.062Z,1006.73
2019-01-24T09:47:51.205Z,1006.77
2019-01-24T09:48:51.243Z,1006.78
2019-01-24T09:49:51.183Z,1006.76
2019-01-24T09:50:51.193Z,1006.77
2019-01-24T09:51:51.311Z,1006.76
2019-01-24T09:52:51.151Z,1006.80
2019-01-24T09:53:51.138Z,1006.82
2019-01-24T09:54:51.136Z,1006.84
2019-01-24T09:55:51.126Z,1006.82
2019-01-24T09:56:51.183Z,1006.91
2019-01-24T09:57:51.095Z,1006.86
2019-01-24T09:58:51.092Z,1006.86
2019-01-24T09:59:51.093Z,1006.90
2019-01-24T10:00:51.111Z,1006.93
2019-01-24T10:01:51.062Z,1006.93
2019-01-24T10:02:51.158Z,1006.97
2019-01-24T10:03:51.036Z,1007.01
2019-01-24T10:04:51.025Z,1006.97
2019-01-24T10:05:51.018Z,1007.01
2019-01-24T10:06:51.024Z,1006.99
2019-01-24T10:07:51.018Z,1007.00
2019-01-24T10:08:50.985Z,1007.02
2019-01-24T10:09:50.985Z,1007.00
2019-01-24T10:10:50.968Z,1007.01
2019-01-24T10:11:50.964Z,1007.06
2019-01-24T10:12:50.971Z,1007.09
2019-01-24T10:13:50.935Z,1007.10
2019-01-24T10:14:50.920Z,1007.09
2019-01-24T10:15:50.917Z,1007.12
2019-01-24T10:16:50.965Z,1007.12
2019-01-24T10:17:50.918Z,1007.09
2019-01-24T10:18:50.887Z,1007.10
2019-01-24T10:19:50.877Z,1007.09
2019-01-24T10:20:50.860Z,1007.08
2019-01-24T10:21:50.871Z,1007.15
2019-01-24T10:22:50.859Z,1007.13
2019-01-24T10:23:50.834Z,1007.13
2019-01-24T10:24:50.841Z,1007.10
2019-01-24T10:25:50.819Z,1007.12
2019-01-24T10:26:50.808Z,1007.14
2019-01-24T10:27:50.810Z,1007.16
2019-01-24T10:28:50.789Z,1007.16
2019-01-24T10:29:50.766Z,1007.14
2019-01-24T10:30:50.765Z,1007.17
2019-01-24T10:31:50.751Z,1007.16
2019-01-24T10:32:50.781Z,1007.14
2019-01-24T10:33:50.750Z,1007.17
2019-01-24T10:34:50.723Z,1007.13
2019-01-24T10:35:50.710Z,1007.09
2019-01-24T10:36:50.712Z,1007.11
2019-01-24T10:37:50.695Z,1007.16
2019-01-24T10:38:50.698Z,1007.11
2019-01-24T10:39:50.675Z,1007.19
2019-01-24T10:40:50.655Z,1007.16
2019-01-24T10:41:50.669Z,1007.18
2019-01-24T10:42:50.640Z,1007.16
2019-01-24T10:43:50.647Z,1007.23
2019-01-24T10:44:50.614Z,1007.15
2019-01-24T10:45:50.608Z,1007.17
2019-01-24T10:46:50.605Z,1007.17
2019-01-24T10:47:50.595Z,1007.20
2019-01-24T10:48:50.590Z,1007.19
2019-01-24T10:49:50.572Z,1007.18
2019-01-24T10:50:50.587Z,1007.20
2019-01-24T10:51:50.537Z,1007.20
2019-01-24T10:52:50.529Z,1007.24
2019-01-24T10:53:50.560Z,1007.23
2019-01-24T10:54:50.510Z,1007.23
2019-01-24T10:55:50.498Z,1007.32
2019-01-24T10:56:50.492Z,1007.30
2019-01-24T10:57:50.482Z,1007.29
2019-01-24T10:58:50.507Z,1007.32
2019-01-24T10:59:50.455Z,1007.20
2019-01-24T11:00:50.448Z,1007.28
2019-01-24T11:01:50.468Z,1007.21
2019-01-24T11:02:50.427Z,1007.28
2019-01-24T11:03:50.448Z,1007.22
2019-01-24T11:04:50.412Z,1007.20
2019-01-24T11:05:50.396Z,1007.24
2019-01-24T11:06:50.394Z,1007.19
2019-01-24T11:07:50.372Z,1007.20
2019-01-24T11:08:50.405Z,1007.25
2019-01-24T11:09:50.352Z,1007.25
2019-01-24T11:10:50.347Z,1007.25
2019-01-24T11:11:50.331Z,1007.22
2019-01-24T11:12:50.331Z,1007.25
2019-01-24T11:13:50.321Z,1007.23
2019-01-24T11:14:50.328Z,1007.17
2019-01-24T11:15:50.312Z,1007.20
2019-01-24T11:16:50.281Z,1007.24
2019-01-24T11:17:50.270Z,1007.21
2019-01-24T11:18:50.282Z,1007.25
2019-01-24T11:19:50.278Z,1007.25
2019-01-24T11:20:50.273Z,1007.31
2019-01-24T11:21:50.269Z,1007.30
2019-01-24T11:22:50.218Z,1007.32
2019-01-24T11:23:50.216Z,1007.36
2019-01-24T11:24:50.225Z,1007.31
2019-01-24T11:25:50.245Z,1007.30
2019-01-24T11:26:50.191Z,1007.27
2019-01-24T11:27:50.168Z,1007.35
2019-01-24T11:28:50.153Z,1007.35
2019-01-24T11:29:50.176Z,1007.37
2019-01-24T11:30:50.155Z,1007.37
2019-01-24T11:31:50.132Z,1007.36
2019-01-24T11:32:50.134Z,1007.40
2019-01-24T11:33:50.099Z,1007.39
2019-01-24T11:34:50.092Z,1007.43
2019-01-24T11:35:50.125Z,1007.43
2019-01-24T11:36:56.803Z,1007.45
2019-01-24T11:37:51.066Z,1007.42
2019-01-24T11:38:50.058Z,1007.36
2019-01-24T11:39:50.051Z,1007.40
2019-01-24T11:40:50.070Z,1007.40
2019-01-24T11:41:50.020Z,1007.40
2019-01-24T11:42:50.036Z,1007.36
2019-01-24T11:43:50.014Z,1007.41
2019-01-24T11:44:49.995Z,1007.42
2019-01-24T11:45:50.013Z,1007.35
2019-01-24T11:46:49.977Z,1007.44
2019-01-24T11:47:49.957Z,1007.44
2019-01-24T11:48:49.962Z,1007.48
2019-01-24T11:49:49.945Z,1007.47
2019-01-24T11:50:51.140Z,1007.44
2019-01-24T11:51:49.944Z,1007.49
2019-01-24T11:52:49.910Z,1007.47
2019-01-24T11:53:53.178Z,1007.42
2019-01-24T11:54:49.947Z,1007.48
2019-01-24T11:55:49.880Z,1007.43
2019-01-24T11:56:49.906Z,1007.42
2019-01-24T11:57:49.860Z,1007.36
2019-01-24T11:58:49.850Z,1007.41
2019-01-24T11:59:49.849Z,1007.43
2019-01-24T12:00:49.838Z,1007.41
2019-01-24T12:01:49.865Z,1007.40
2019-01-24T12:02:49.806Z,1007.42
2019-01-24T12:03:49.821Z,1007.40
2019-01-24T12:04:49.788Z,1007.45
2019-01-24T12:05:49.775Z,1007.35
2019-01-24T12:06:49.843Z,1007.41
2019-01-24T12:07:49.753Z,1007.36
2019-01-24T12:08:49.750Z,1007.40
2019-01-24T12:09:49.735Z,1007.43
2019-01-24T12:10:49.720Z,1007.36
2019-01-24T12:11:49.736Z,1007.41
2019-01-24T12:12:49.701Z,1007.32
2019-01-24T12:13:49.721Z,1007.32
2019-01-24T12:14:49.681Z,1007.31